Welcome to our Virtual Airline
Sign-in:

Flight MFC6841

  • Submitted By: Thomas Menzel
  • Departure Airport: Hydaburg SPB (HYG)
  • Arrival Airport: Point Baker SPB (KPB)
  • Aircraft: DHC2 BEAVERF (N001MM-FL)
  • Flight Time: 01.01.36
  • Date Submitted: 2019/01/02
  • Route: FOLLOW THE TOUR FP
  • Status: Accepted
Flight Details
Gross Revenue:
(5 load / $ 52.00 per unit
$ 260.00
Fuel Cost:
(75.2963 fuel used @ 5.1 / unit)
$ 384.01

Additional Log Information:

View Log

FS[11:29] ----- Flight Opened -----
FS[11:29] Cigar Box - 1.1.4.0
FS[11:29] FS: Prepar3D V4
FS[11:29] FSUIPC: v5.14
FS[11:29] Flight Number: MFC6841
FS[11:29] FS Aircraft: DHC2 Beaver N001MM Floats
FS[11:29] FS Model: DHC2
FS[11:29] FS Type: Silent
FS[11:29] Departure: HYG
FS[11:29] Arrival: KPB
FS[11:29] Flight Level: 2500
FS[11:29] Flight Type: H
FS[11:29] Passengers: 5
FS[11:29] FOB: 570 lbs
FS[11:29] Gate: n/a
FS[11:29] Crash Detection: Disabled
FS[11:29] Engines: 1 Piston
FS[11:29] NOTE: Boarding has started
FS[11:29] Parking Brake: Engaged
FS[11:29] Engine 1: Started
FS[11:29] Light Data: Navigation ON
FS[11:29] Light Data: Beacon ON
FS[11:29] Light Data: Strobe lights ON
FS[11:29] Main Door Closed
FS[11:29] COM1: 122.90
FS[11:29] COM2: 124.85
FS[11:29] Transponder: 7000
FS[11:29] NAV1: 110.50
FS[11:29] NAV2: 110.50
FS[11:29] ADF1: 890.0
FS[11:29] ADF2: 890.0
FS[11:29] Navigation Mode: GPS
FS[11:29] Navigation Mode: GPS
FS[11:29] NOTE: Pushing back
FS[11:29] Parking Brake: Released
FS[11:30] NOTE: Taxi started
FS[11:31] Flaps: Position 2
FS[11:31] Flaps: Position 3
FS[11:31] Flaps: Position 4
FS[11:31] Flaps: Position 5
FS[11:31] Flaps: Position 6
FS[11:32] NOTE: ----- TAKE OFF -----
FS[11:32] GS: 60 knots
FS[11:32] TAS: 58 knots
FS[11:32] IAS: 51 knots
FS[11:32] VS: 108 fpm
FS[11:32] FOB: 568 lbs
FS[11:32] Heading: 305°
FS[11:32] Pitch: 14°
FS[11:32] Bank: 0°
FS[11:32] Aircraft Weight: 4648.15 lbs
FS[11:32] Nearest Airport: HYG
FS[11:32] Distance: 0.58 miles
FS[11:32] Runway: ???
FS[11:32] Ground Surface: Water
FS[11:32] Ground Condition: Snow
FS[11:32] NOTE: Weather Report
FS[11:32] Wind Heading: 98°
FS[11:32] Wind Speed: 3 knots
FS[11:32] OAT: 5° C
FS[11:32] TAT: 6° C
FS[11:32] Precipitation: None
FS[11:32] Dew Point: 4° C
FS[11:32] Visibility: 59 miles
FS[11:32] METAR: No METAR available for HYG.
FS[11:32] NOTE: Climb started
FS[11:32] View Mode: Virtual Cockpit
FS[11:32] Flaps: Position 7
FS[11:32] GS: 62 knots
FS[11:32] TAS: 61 knots
FS[11:32] IAS: 55 knots
FS[11:32] VS: 312 fpm
FS[11:33] Flaps: Position 0
FS[11:33] GS: 58 knots
FS[11:33] TAS: 58 knots
FS[11:33] IAS: 50 knots
FS[11:33] VS: 740 fpm
FS[11:33] Flaps: Position 1
FS[11:33] GS: 68 knots
FS[11:33] TAS: 66 knots
FS[11:33] IAS: 60 knots
FS[11:33] VS: -144 fpm
FS[11:33] Flaps: Position 2
FS[11:33] GS: 71 knots
FS[11:33] TAS: 70 knots
FS[11:33] IAS: 64 knots
FS[11:33] VS: -165 fpm
FS[11:33] Flaps: Position 3
FS[11:33] GS: 73 knots
FS[11:33] TAS: 72 knots
FS[11:33] IAS: 67 knots
FS[11:33] VS: -46 fpm
FS[11:33] Autopilot: Engaged
FS[11:33] AGL: 662 ft
FS[11:33] AMSL: 662 ft
FS[11:33] Autopilot: Disengaged
FS[11:33] AGL: 833 ft
FS[11:33] AMSL: 833 ft
FS[11:34] Autopilot: Engaged
FS[11:34] AGL: 1236 ft
FS[11:34] AMSL: 1236 ft
FS[11:34] NOTE: TOC reached
FS[11:34] NOTE: Cruise started
FS[11:34] GS: 85 knots
FS[11:34] TAS: 84 knots
FS[11:34] IAS: 77 knots
FS[11:34] VS: 199 fpm
FS[11:34] FOB: 558 lbs
FS[11:34] Heading: 339°
FS[11:34] Pitch: 2°
FS[11:34] Bank: 0°
FS[11:34] Aircraft Weight: 4638.12 lbs
FS[11:36] Light Data: Landing lights ON
FS[11:36] AGL: 1700 ft
FS[11:36] AMSL: 1755 ft
FS[11:36] Light Data: Landing lights OFF
FS[11:36] AGL: 1703 ft
FS[11:36] AMSL: 1755 ft
FS[11:36] Recovery: Flight Saved
FS[11:36] Light Data: Instrument lights ON
FS[11:36] Light Data: Instrument lights OFF
FS[11:39] Flaps: Position 2
FS[11:39] GS: 95 knots
FS[11:39] TAS: 95 knots
FS[11:39] IAS: 88 knots
FS[11:39] VS: 467 fpm
FS[11:43] Autopilot: Disengaged
FS[11:43] AGL: 1378 ft
FS[11:43] AMSL: 2467 ft
FS[11:43] Autopilot: Engaged
FS[11:43] AGL: 1053 ft
FS[11:43] AMSL: 2565 ft
FS[11:43] Recovery: Flight Saved
FS[11:51] Recovery: Flight Saved
FS[11:59] Recovery: Flight Saved
FS[12:06] Recovery: Flight Saved
FS[12:14] Recovery: Flight Saved
FS[12:17] NOTE: TOD reached
FS[12:17] NOTE: Descent started
FS[12:17] GS: 103 knots
FS[12:17] TAS: 108 knots
FS[12:17] IAS: 103 knots
FS[12:17] VS: -403 fpm
FS[12:17] FOB: 430 lbs
FS[12:17] Heading: 272°
FS[12:17] Pitch: 2°
FS[12:17] Bank: 3°
FS[12:17] Aircraft Weight: 4510.53 lbs
FS[12:17] NOTE: On approach
FS[12:23] Recovery: Flight Saved
FS[12:24] Flaps: Position 3
FS[12:24] GS: 99 knots
FS[12:24] TAS: 97 knots
FS[12:24] IAS: 93 knots
FS[12:24] VS: -285 fpm
FS[12:24] Flaps: Position 5
FS[12:24] GS: 97 knots
FS[12:24] TAS: 96 knots
FS[12:24] IAS: 91 knots
FS[12:24] VS: -208 fpm
FS[12:25] Flaps: Position 6
FS[12:25] GS: 85 knots
FS[12:25] TAS: 83 knots
FS[12:25] IAS: 78 knots
FS[12:25] VS: -472 fpm
FS[12:26] Flaps: Position 7
FS[12:26] GS: 83 knots
FS[12:26] TAS: 81 knots
FS[12:26] IAS: 76 knots
FS[12:26] VS: -551 fpm
FS[12:26] Autopilot: Disengaged
FS[12:26] AGL: 406 ft
FS[12:26] AMSL: 406 ft
FS[12:26] Flaps: Position 8
FS[12:26] GS: 71 knots
FS[12:26] TAS: 74 knots
FS[12:26] IAS: 69 knots
FS[12:26] VS: -706 fpm
FS[12:27] NOTE: ----- LANDED -----
FS[12:27] Landing Rate: -270.67 fpm
FS[12:27] GS: 42 knots
FS[12:27] TAS: 45 knots
FS[12:27] IAS: 37 knots
FS[12:27] VS: -268 fpm
FS[12:27] FOB: 405 lbs
FS[12:27] Heading: 77°
FS[12:27] Pitch: 6°
FS[12:27] Bank: 4°
FS[12:27] Aircraft Weight: 4485.89 lbs
FS[12:27] Nearest Airport: KPB
FS[12:27] Distance: 0.62 miles
FS[12:27] Runway: ???
FS[12:27] Ground Surface: Water
FS[12:27] Ground Condition: Snow
FS[12:27] NOTE: Weather Report
FS[12:27] Wind Heading: 126°
FS[12:27] Wind Speed: 4 knots
FS[12:27] OAT: 4° C
FS[12:27] TAT: 4° C
FS[12:27] Precipitation: Very Light Rain
FS[12:27] Dew Point: 2° C
FS[12:27] Visibility: 44 miles
FS[12:27] METAR: KPBF 021353Z AUTO 02010KT 10SM FEW075 BKN095 04/01 A3028 RMK AO2 SLP255 T00390011KPBG 021353Z AUTO 36005KT 10SM OVC019 M11/M13 A3040 RMK AO2 SLP300 T11061133KPBH 021435Z AUTO 19007KT 10SM OVC008 M11/M12 A2997 RMK AO2 T11121121KPBI 021353Z 18004KT 10SM SCT031 SCT043 23/21 A3021 RMK AO2 SLP230 T02330206 $KPBX 021435Z AUTO 00000KT 10SM CLR 06/06 A3020 RMK AO2 T00570057
FS[12:27] View Mode: Virtual Cockpit
FS[12:27] NOTE: Taxi started
FS[12:27] Flaps: Position 0
FS[12:31] NOTE: Arrived
FS[12:31] Parking Brake: Engaged
FS[12:31] Gate: n/a
FS[12:31] NOTE: Flight Completed
FS[12:31] FS Aircraft: DHC2 Beaver N001MM Floats
FS[12:31] FS Model: DHC2
FS[12:31] FS Type: Silent
FS[12:31] FOB: 404 lbs
FS[12:31] Fuel Used: 166 lbs
FS[12:31] Flight Time: 01:01:36
FS[12:31] Flight Time (Dawn): 00:00:00
FS[12:31] Flight Time (Day): 01:01:36
FS[12:31] Flight Time (Dusk): 00:00:00
FS[12:31] Flight Time (Night): 00:00:00
FS[12:31] Total Landings: 1
FS[12:31] MaxSim Rate: 0x
FS[12:31] Cigar Box - 1.1.4.0
FS[12:31] ----- Flight Closed -----

Route Map